sensor_id;sensor_type;location;lat;lon;timestamp;P1;durP1;ratioP1;P2;durP2;ratioP2
4122;SDS011;2075;51.062;6.920;2023-06-01T00:00:36;8.40;;;3.20;;
4122;SDS011;2075;51.062;6.920;2023-06-01T00:03:24;4.20;;;2.70;;
4122;SDS011;2075;51.062;6.920;2023-06-01T00:06:10;3.90;;;2.70;;
4122;SDS011;2075;51.062;6.920;2023-06-01T00:08:56;5.07;;;3.40;;
4122;SDS011;2075;51.062;6.920;2023-06-01T00:11:41;5.63;;;2.93;;
4122;SDS011;2075;51.062;6.920;2023-06-01T00:14:27;4.83;;;3.10;;
4122;SDS011;2075;51.062;6.920;2023-06-01T00:17:12;6.07;;;3.70;;
4122;SDS011;2075;51.062;6.920;2023-06-01T00:19:59;11.47;;;3.40;;
4122;SDS011;2075;51.062;6.920;2023-06-01T00:22:45;6.37;;;3.27;;
4122;SDS011;2075;51.062;6.920;2023-06-01T00:25:32;5.23;;;2.97;;
4122;SDS011;2075;51.062;6.920;2023-06-01T00:28:18;6.03;;;3.23;;
4122;SDS011;2075;51.062;6.920;2023-06-01T00:31:04;4.83;;;2.70;;
4122;SDS011;2075;51.062;6.920;2023-06-01T00:33:49;4.20;;;2.87;;
4122;SDS011;2075;51.062;6.920;2023-06-01T00:36:36;5.30;;;3.07;;
4122;SDS011;2075;51.062;6.920;2023-06-01T00:39:22;7.03;;;2.73;;
4122;SDS011;2075;51.062;6.920;2023-06-01T00:42:07;8.17;;;3.10;;
4122;SDS011;2075;51.062;6.920;2023-06-01T00:44:52;9.33;;;3.73;;
4122;SDS011;2075;51.062;6.920;2023-06-01T00:47:39;3.40;;;3.10;;
4122;SDS011;2075;51.062;6.920;2023-06-01T00:50:26;6.60;;;2.80;;
4122;SDS011;2075;51.062;6.920;2023-06-01T00:53:16;6.97;;;2.93;;
4122;SDS011;2075;51.062;6.920;2023-06-01T00:56:03;3.27;;;3.00;;
4122;SDS011;2075;51.062;6.920;2023-06-01T00:58:49;7.70;;;3.17;;
4122;SDS011;2075;51.062;6.920;2023-06-01T01:01:35;8.00;;;3.00;;
4122;SDS011;2075;51.062;6.920;2023-06-01T01:04:20;5.10;;;3.30;;
4122;SDS011;2075;51.062;6.920;2023-06-01T01:07:12;4.30;;;3.20;;
4122;SDS011;2075;51.062;6.920;2023-06-01T01:10:08;11.57;;;3.40;;
4122;SDS011;2075;51.062;6.920;2023-06-01T01:13:10;7.23;;;3.10;;
4122;SDS011;2075;51.062;6.920;2023-06-01T01:16:00;4.63;;;3.27;;
4122;SDS011;2075;51.062;6.920;2023-06-01T01:18:51;8.07;;;3.10;;
4122;SDS011;2075;51.062;6.920;2023-06-01T01:21:45;9.93;;;3.73;;
4122;SDS011;2075;51.062;6.920;2023-06-01T01:24:43;7.87;;;3.50;;
4122;SDS011;2075;51.062;6.920;2023-06-01T01:27:45;7.30;;;3.30;;
4122;SDS011;2075;51.062;6.920;2023-06-01T01:30:47;4.83;;;2.73;;
4122;SDS011;2075;51.062;6.920;2023-06-01T01:33:36;5.60;;;3.30;;
4122;SDS011;2075;51.062;6.920;2023-06-01T01:36:23;6.37;;;3.97;;
4122;SDS011;2075;51.062;6.920;2023-06-01T01:39:09;13.37;;;3.73;;
4122;SDS011;2075;51.062;6.920;2023-06-01T01:41:55;6.00;;;3.43;;
4122;SDS011;2075;51.062;6.920;2023-06-01T01:44:41;5.83;;;3.30;;
4122;SDS011;2075;51.062;6.920;2023-06-01T01:47:31;4.67;;;3.17;;
4122;SDS011;2075;51.062;6.920;2023-06-01T01:50:27;9.83;;;3.50;;
4122;SDS011;2075;51.062;6.920;2023-06-01T01:53:17;7.47;;;3.53;;
4122;SDS011;2075;51.062;6.920;2023-06-01T01:56:04;8.47;;;3.83;;
4122;SDS011;2075;51.062;6.920;2023-06-01T01:58:53;4.83;;;3.77;;
4122;SDS011;2075;51.062;6.920;2023-06-01T02:01:40;4.63;;;3.20;;
4122;SDS011;2075;51.062;6.920;2023-06-01T02:07:25;6.83;;;4.03;;
4122;SDS011;2075;51.062;6.920;2023-06-01T02:10:11;4.23;;;3.47;;
4122;SDS011;2075;51.062;6.920;2023-06-01T02:12:59;7.67;;;3.60;;
4122;SDS011;2075;51.062;6.920;2023-06-01T02:15:45;13.50;;;3.87;;
4122;SDS011;2075;51.062;6.920;2023-06-01T02:18:31;6.47;;;3.43;;
4122;SDS011;2075;51.062;6.920;2023-06-01T02:21:18;10.10;;;3.70;;
4122;SDS011;2075;51.062;6.920;2023-06-01T02:24:05;4.30;;;3.10;;
4122;SDS011;2075;51.062;6.920;2023-06-01T02:26:51;5.63;;;3.67;;
4122;SDS011;2075;51.062;6.920;2023-06-01T02:29:37;7.53;;;3.70;;
4122;SDS011;2075;51.062;6.920;2023-06-01T02:32:22;6.43;;;3.73;;
4122;SDS011;2075;51.062;6.920;2023-06-01T02:35:09;9.93;;;3.30;;
4122;SDS011;2075;51.062;6.920;2023-06-01T02:37:56;9.00;;;3.60;;
4122;SDS011;2075;51.062;6.920;2023-06-01T02:40:41;5.53;;;3.60;;
4122;SDS011;2075;51.062;6.920;2023-06-01T02:43:26;10.43;;;3.67;;
4122;SDS011;2075;51.062;6.920;2023-06-01T02:46:12;5.97;;;4.27;;
4122;SDS011;2075;51.062;6.920;2023-06-01T02:48:59;9.07;;;4.50;;
4122;SDS011;2075;51.062;6.920;2023-06-01T02:51:46;6.70;;;4.13;;
4122;SDS011;2075;51.062;6.920;2023-06-01T02:54:44;12.47;;;4.47;;
4122;SDS011;2075;51.062;6.920;2023-06-01T02:57:51;13.73;;;4.10;;
4122;SDS011;2075;51.062;6.920;2023-06-01T03:00:36;10.33;;;4.77;;
4122;SDS011;2075;51.062;6.920;2023-06-01T03:03:22;10.93;;;4.67;;
4122;SDS011;2075;51.062;6.920;2023-06-01T03:06:07;16.43;;;6.30;;
4122;SDS011;2075;51.062;6.920;2023-06-01T03:09:12;6.70;;;4.47;;
4122;SDS011;2075;51.062;6.920;2023-06-01T03:12:09;7.43;;;5.47;;
4122;SDS011;2075;51.062;6.920;2023-06-01T03:14:55;7.90;;;5.30;;
4122;SDS011;2075;51.062;6.920;2023-06-01T03:17:40;14.23;;;5.33;;
4122;SDS011;2075;51.062;6.920;2023-06-01T03:20:26;13.13;;;5.73;;
4122;SDS011;2075;51.062;6.920;2023-06-01T03:23:12;11.23;;;5.47;;
4122;SDS011;2075;51.062;6.920;2023-06-01T03:25:57;11.10;;;6.40;;
4122;SDS011;2075;51.062;6.920;2023-06-01T03:28:44;10.80;;;6.80;;
4122;SDS011;2075;51.062;6.920;2023-06-01T03:31:29;11.73;;;6.43;;
4122;SDS011;2075;51.062;6.920;2023-06-01T03:34:18;13.47;;;6.07;;
4122;SDS011;2075;51.062;6.920;2023-06-01T03:37:05;17.07;;;7.57;;
4122;SDS011;2075;51.062;6.920;2023-06-01T03:39:52;13.30;;;7.10;;
4122;SDS011;2075;51.062;6.920;2023-06-01T03:42:40;16.20;;;7.47;;
4122;SDS011;2075;51.062;6.920;2023-06-01T03:45:29;13.80;;;7.10;;
4122;SDS011;2075;51.062;6.920;2023-06-01T03:48:15;13.93;;;8.40;;
4122;SDS011;2075;51.062;6.920;2023-06-01T03:51:00;23.53;;;9.60;;
4122;SDS011;2075;51.062;6.920;2023-06-01T03:53:46;14.20;;;7.87;;
4122;SDS011;2075;51.062;6.920;2023-06-01T03:56:32;17.73;;;8.30;;
4122;SDS011;2075;51.062;6.920;2023-06-01T03:59:19;13.13;;;8.93;;
4122;SDS011;2075;51.062;6.920;2023-06-01T04:02:06;21.03;;;9.53;;
4122;SDS011;2075;51.062;6.920;2023-06-01T04:04:53;19.10;;;10.03;;
4122;SDS011;2075;51.062;6.920;2023-06-01T04:07:39;20.90;;;9.63;;
4122;SDS011;2075;51.062;6.920;2023-06-01T04:10:25;18.30;;;10.17;;
4122;SDS011;2075;51.062;6.920;2023-06-01T04:13:10;22.77;;;11.57;;
4122;SDS011;2075;51.062;6.920;2023-06-01T04:15:55;19.93;;;10.73;;
4122;SDS011;2075;51.062;6.920;2023-06-01T04:18:42;19.70;;;10.27;;
4122;SDS011;2075;51.062;6.920;2023-06-01T04:21:40;25.83;;;10.60;;
4122;SDS011;2075;51.062;6.920;2023-06-01T04:24:27;25.77;;;10.70;;
4122;SDS011;2075;51.062;6.920;2023-06-01T04:27:12;17.33;;;9.53;;
4122;SDS011;2075;51.062;6.920;2023-06-01T04:29:59;27.57;;;13.00;;
4122;SDS011;2075;51.062;6.920;2023-06-01T04:32:46;22.07;;;11.70;;
4122;SDS011;2075;51.062;6.920;2023-06-01T04:35:34;26.93;;;12.50;;
4122;SDS011;2075;51.062;6.920;2023-06-01T04:38:21;24.80;;;14.70;;
4122;SDS011;2075;51.062;6.920;2023-06-01T04:41:09;27.63;;;15.20;;
4122;SDS011;2075;51.062;6.920;2023-06-01T04:43:55;33.90;;;16.60;;
4122;SDS011;2075;51.062;6.920;2023-06-01T04:46:43;31.90;;;17.37;;
4122;SDS011;2075;51.062;6.920;2023-06-01T04:49:30;33.20;;;16.70;;
4122;SDS011;2075;51.062;6.920;2023-06-01T04:52:17;32.63;;;16.70;;
4122;SDS011;2075;51.062;6.920;2023-06-01T04:55:03;35.50;;;17.53;;
4122;SDS011;2075;51.062;6.920;2023-06-01T04:57:49;33.77;;;18.23;;
4122;SDS011;2075;51.062;6.920;2023-06-01T05:00:34;39.77;;;19.33;;
4122;SDS011;2075;51.062;6.920;2023-06-01T05:03:20;30.50;;;16.40;;
4122;SDS011;2075;51.062;6.920;2023-06-01T05:06:05;34.80;;;18.00;;
4122;SDS011;2075;51.062;6.920;2023-06-01T05:08:52;31.23;;;18.20;;
4122;SDS011;2075;51.062;6.920;2023-06-01T05:11:38;29.63;;;18.70;;
4122;SDS011;2075;51.062;6.920;2023-06-01T05:14:23;30.47;;;19.10;;
4122;SDS011;2075;51.062;6.920;2023-06-01T05:17:10;36.00;;;19.57;;
4122;SDS011;2075;51.062;6.920;2023-06-01T05:19:56;40.37;;;22.80;;
4122;SDS011;2075;51.062;6.920;2023-06-01T05:22:41;33.47;;;18.30;;
4122;SDS011;2075;51.062;6.920;2023-06-01T05:25:28;32.03;;;18.07;;
4122;SDS011;2075;51.062;6.920;2023-06-01T05:28:14;29.40;;;18.20;;
4122;SDS011;2075;51.062;6.920;2023-06-01T05:30:59;35.33;;;18.30;;
4122;SDS011;2075;51.062;6.920;2023-06-01T05:33:46;30.03;;;17.93;;
4122;SDS011;2075;51.062;6.920;2023-06-01T05:36:33;26.87;;;18.77;;
4122;SDS011;2075;51.062;6.920;2023-06-01T05:39:19;32.10;;;17.07;;
4122;SDS011;2075;51.062;6.920;2023-06-01T05:42:08;25.95;;;17.77;;
4122;SDS011;2075;51.062;6.920;2023-06-01T05:44:56;28.43;;;17.33;;
4122;SDS011;2075;51.062;6.920;2023-06-01T05:47:41;32.17;;;17.90;;
4122;SDS011;2075;51.062;6.920;2023-06-01T05:50:28;43.07;;;20.50;;
4122;SDS011;2075;51.062;6.920;2023-06-01T05:53:13;27.00;;;17.20;;
4122;SDS011;2075;51.062;6.920;2023-06-01T05:56:00;27.95;;;18.98;;
4122;SDS011;2075;51.062;6.920;2023-06-01T05:58:48;27.70;;;17.73;;
4122;SDS011;2075;51.062;6.920;2023-06-01T06:01:37;28.80;;;16.50;;
4122;SDS011;2075;51.062;6.920;2023-06-01T06:04:22;28.43;;;18.27;;
4122;SDS011;2075;51.062;6.920;2023-06-01T06:07:08;28.93;;;16.47;;
4122;SDS011;2075;51.062;6.920;2023-06-01T06:09:53;26.67;;;17.27;;
4122;SDS011;2075;51.062;6.920;2023-06-01T06:12:39;26.20;;;16.67;;
4122;SDS011;2075;51.062;6.920;2023-06-01T06:15:26;24.00;;;16.20;;
4122;SDS011;2075;51.062;6.920;2023-06-01T06:18:12;25.70;;;16.60;;
4122;SDS011;2075;51.062;6.920;2023-06-01T06:20:57;25.30;;;16.43;;
4122;SDS011;2075;51.062;6.920;2023-06-01T06:23:44;27.27;;;18.53;;
4122;SDS011;2075;51.062;6.920;2023-06-01T06:26:31;23.70;;;17.20;;
4122;SDS011;2075;51.062;6.920;2023-06-01T06:29:19;23.67;;;16.47;;
4122;SDS011;2075;51.062;6.920;2023-06-01T06:32:07;24.43;;;15.13;;
4122;SDS011;2075;51.062;6.920;2023-06-01T06:34:53;24.58;;;16.00;;
4122;SDS011;2075;51.062;6.920;2023-06-01T06:37:39;23.50;;;16.37;;
4122;SDS011;2075;51.062;6.920;2023-06-01T06:40:25;28.93;;;16.60;;
4122;SDS011;2075;51.062;6.920;2023-06-01T06:43:11;31.30;;;18.07;;
4122;SDS011;2075;51.062;6.920;2023-06-01T06:45:57;26.97;;;17.20;;
4122;SDS011;2075;51.062;6.920;2023-06-01T06:48:44;26.30;;;18.37;;
4122;SDS011;2075;51.062;6.920;2023-06-01T06:51:30;26.02;;;18.38;;
4122;SDS011;2075;51.062;6.920;2023-06-01T06:54:16;27.80;;;17.63;;
4122;SDS011;2075;51.062;6.920;2023-06-01T06:57:02;28.13;;;18.80;;
4122;SDS011;2075;51.062;6.920;2023-06-01T06:59:48;24.00;;;17.67;;
4122;SDS011;2075;51.062;6.920;2023-06-01T07:02:34;22.93;;;17.00;;
4122;SDS011;2075;51.062;6.920;2023-06-01T07:05:21;27.60;;;17.43;;
4122;SDS011;2075;51.062;6.920;2023-06-01T07:08:07;24.93;;;17.40;;
4122;SDS011;2075;51.062;6.920;2023-06-01T07:10:53;28.33;;;16.43;;
4122;SDS011;2075;51.062;6.920;2023-06-01T07:13:39;25.42;;;18.35;;
4122;SDS011;2075;51.062;6.920;2023-06-01T07:16:25;22.47;;;16.57;;
4122;SDS011;2075;51.062;6.920;2023-06-01T07:19:10;21.83;;;17.45;;
4122;SDS011;2075;51.062;6.920;2023-06-01T07:21:57;24.50;;;16.57;;
4122;SDS011;2075;51.062;6.920;2023-06-01T07:24:42;21.10;;;16.90;;
4122;SDS011;2075;51.062;6.920;2023-06-01T07:27:28;24.80;;;16.30;;
4122;SDS011;2075;51.062;6.920;2023-06-01T07:30:14;24.43;;;17.20;;
4122;SDS011;2075;51.062;6.920;2023-06-01T07:33:00;23.73;;;17.10;;
4122;SDS011;2075;51.062;6.920;2023-06-01T07:35:47;24.10;;;17.57;;
4122;SDS011;2075;51.062;6.920;2023-06-01T07:38:38;29.13;;;18.40;;
4122;SDS011;2075;51.062;6.920;2023-06-01T07:41:24;31.63;;;17.57;;
4122;SDS011;2075;51.062;6.920;2023-06-01T07:44:09;28.00;;;16.10;;
4122;SDS011;2075;51.062;6.920;2023-06-01T07:46:56;24.77;;;16.90;;
4122;SDS011;2075;51.062;6.920;2023-06-01T07:49:42;27.80;;;17.60;;
4122;SDS011;2075;51.062;6.920;2023-06-01T07:52:28;24.17;;;17.80;;
4122;SDS011;2075;51.062;6.920;2023-06-01T07:55:14;25.83;;;17.33;;
4122;SDS011;2075;51.062;6.920;2023-06-01T07:58:00;25.60;;;16.37;;
4122;SDS011;2075;51.062;6.920;2023-06-01T08:00:46;30.23;;;16.80;;
4122;SDS011;2075;51.062;6.920;2023-06-01T08:03:32;24.10;;;16.83;;
4122;SDS011;2075;51.062;6.920;2023-06-01T08:06:18;24.47;;;16.27;;
4122;SDS011;2075;51.062;6.920;2023-06-01T08:09:07;21.40;;;16.47;;
4122;SDS011;2075;51.062;6.920;2023-06-01T08:11:55;27.67;;;17.50;;
4122;SDS011;2075;51.062;6.920;2023-06-01T08:14:41;21.67;;;15.90;;
4122;SDS011;2075;51.062;6.920;2023-06-01T08:17:28;24.80;;;17.17;;
4122;SDS011;2075;51.062;6.920;2023-06-01T08:20:14;22.33;;;15.70;;
4122;SDS011;2075;51.062;6.920;2023-06-01T08:23:05;23.03;;;16.20;;
4122;SDS011;2075;51.062;6.920;2023-06-01T08:25:50;22.97;;;16.10;;
4122;SDS011;2075;51.062;6.920;2023-06-01T08:28:37;18.00;;;14.50;;
4122;SDS011;2075;51.062;6.920;2023-06-01T08:31:23;25.20;;;16.70;;
4122;SDS011;2075;51.062;6.920;2023-06-01T08:34:09;20.90;;;15.47;;
4122;SDS011;2075;51.062;6.920;2023-06-01T08:36:55;29.67;;;17.43;;
4122;SDS011;2075;51.062;6.920;2023-06-01T08:39:40;26.47;;;17.70;;
4122;SDS011;2075;51.062;6.920;2023-06-01T08:42:29;20.23;;;15.47;;
4122;SDS011;2075;51.062;6.920;2023-06-01T08:45:20;22.10;;;16.20;;
4122;SDS011;2075;51.062;6.920;2023-06-01T08:48:07;19.65;;;15.63;;
4122;SDS011;2075;51.062;6.920;2023-06-01T08:50:54;18.10;;;15.30;;
4122;SDS011;2075;51.062;6.920;2023-06-01T08:53:41;20.87;;;15.03;;
4122;SDS011;2075;51.062;6.920;2023-06-01T08:56:28;19.03;;;13.97;;
4122;SDS011;2075;51.062;6.920;2023-06-01T08:59:14;17.83;;;13.23;;
4122;SDS011;2075;51.062;6.920;2023-06-01T09:02:01;18.70;;;12.47;;
4122;SDS011;2075;51.062;6.920;2023-06-01T09:04:47;16.03;;;12.60;;
4122;SDS011;2075;51.062;6.920;2023-06-01T09:07:33;19.17;;;13.50;;
4122;SDS011;2075;51.062;6.920;2023-06-01T09:10:22;21.00;;;14.95;;
4122;SDS011;2075;51.062;6.920;2023-06-01T09:13:11;24.77;;;13.87;;
4122;SDS011;2075;51.062;6.920;2023-06-01T09:15:57;21.73;;;15.00;;
4122;SDS011;2075;51.062;6.920;2023-06-01T09:18:53;20.90;;;13.90;;
4122;SDS011;2075;51.062;6.920;2023-06-01T09:21:40;24.03;;;13.77;;
4122;SDS011;2075;51.062;6.920;2023-06-01T09:24:26;20.73;;;13.37;;
4122;SDS011;2075;51.062;6.920;2023-06-01T09:27:12;22.73;;;14.50;;
4122;SDS011;2075;51.062;6.920;2023-06-01T09:29:58;28.43;;;13.03;;
4122;SDS011;2075;51.062;6.920;2023-06-01T09:32:44;22.13;;;13.97;;
4122;SDS011;2075;51.062;6.920;2023-06-01T09:35:39;18.00;;;12.00;;
4122;SDS011;2075;51.062;6.920;2023-06-01T09:38:26;23.43;;;12.83;;
4122;SDS011;2075;51.062;6.920;2023-06-01T09:41:11;22.63;;;13.60;;
4122;SDS011;2075;51.062;6.920;2023-06-01T09:43:57;25.00;;;13.33;;
4122;SDS011;2075;51.062;6.920;2023-06-01T09:46:46;22.73;;;12.40;;
4122;SDS011;2075;51.062;6.920;2023-06-01T09:49:50;19.00;;;12.53;;
4122;SDS011;2075;51.062;6.920;2023-06-01T09:52:41;23.40;;;12.50;;
4122;SDS011;2075;51.062;6.920;2023-06-01T09:55:57;20.07;;;11.67;;
4122;SDS011;2075;51.062;6.920;2023-06-01T09:58:45;17.40;;;11.60;;
4122;SDS011;2075;51.062;6.920;2023-06-01T10:01:33;16.40;;;11.37;;
4122;SDS011;2075;51.062;6.920;2023-06-01T10:04:26;16.13;;;9.90;;
4122;SDS011;2075;51.062;6.920;2023-06-01T10:07:13;16.15;;;10.68;;
4122;SDS011;2075;51.062;6.920;2023-06-01T10:10:01;15.97;;;10.93;;
4122;SDS011;2075;51.062;6.920;2023-06-01T10:12:47;19.33;;;10.87;;
4122;SDS011;2075;51.062;6.920;2023-06-01T10:15:35;19.37;;;10.83;;
4122;SDS011;2075;51.062;6.920;2023-06-01T10:18:23;22.23;;;11.37;;
4122;SDS011;2075;51.062;6.920;2023-06-01T10:21:09;18.67;;;11.32;;
4122;SDS011;2075;51.062;6.920;2023-06-01T10:23:55;12.53;;;10.10;;
4122;SDS011;2075;51.062;6.920;2023-06-01T10:26:45;16.70;;;9.70;;
4122;SDS011;2075;51.062;6.920;2023-06-01T10:29:40;15.70;;;9.73;;
4122;SDS011;2075;51.062;6.920;2023-06-01T10:32:41;17.70;;;9.47;;
4122;SDS011;2075;51.062;6.920;2023-06-01T10:38:47;15.97;;;9.67;;
4122;SDS011;2075;51.062;6.920;2023-06-01T10:41:32;11.77;;;8.70;;
4122;SDS011;2075;51.062;6.920;2023-06-01T10:47:44;15.67;;;9.37;;
4122;SDS011;2075;51.062;6.920;2023-06-01T10:50:32;21.97;;;10.70;;
4122;SDS011;2075;51.062;6.920;2023-06-01T10:53:23;18.50;;;10.10;;
4122;SDS011;2075;51.062;6.920;2023-06-01T10:56:20;16.73;;;11.20;;
4122;SDS011;2075;51.062;6.920;2023-06-01T10:59:10;18.00;;;10.70;;
4122;SDS011;2075;51.062;6.920;2023-06-01T11:01:59;17.17;;;9.77;;
4122;SDS011;2075;51.062;6.920;2023-06-01T11:04:49;16.60;;;9.47;;
4122;SDS011;2075;51.062;6.920;2023-06-01T11:07:35;14.83;;;10.23;;
4122;SDS011;2075;51.062;6.920;2023-06-01T11:13:40;18.13;;;9.90;;
4122;SDS011;2075;51.062;6.920;2023-06-01T11:16:32;22.20;;;11.20;;
4122;SDS011;2075;51.062;6.920;2023-06-01T11:19:19;22.23;;;11.10;;
4122;SDS011;2075;51.062;6.920;2023-06-01T11:22:08;19.80;;;11.97;;
4122;SDS011;2075;51.062;6.920;2023-06-01T11:24:55;18.50;;;11.87;;
4122;SDS011;2075;51.062;6.920;2023-06-01T11:27:44;17.47;;;11.57;;
4122;SDS011;2075;51.062;6.920;2023-06-01T11:30:30;19.97;;;11.30;;
4122;SDS011;2075;51.062;6.920;2023-06-01T11:33:15;18.23;;;11.67;;
4122;SDS011;2075;51.062;6.920;2023-06-01T11:36:03;21.57;;;11.87;;
4122;SDS011;2075;51.062;6.920;2023-06-01T11:38:50;17.57;;;12.17;;
4122;SDS011;2075;51.062;6.920;2023-06-01T11:41:36;22.80;;;13.50;;
4122;SDS011;2075;51.062;6.920;2023-06-01T11:44:22;25.93;;;13.70;;
4122;SDS011;2075;51.062;6.920;2023-06-01T11:47:08;24.30;;;16.00;;
4122;SDS011;2075;51.062;6.920;2023-06-01T11:49:54;26.83;;;16.13;;
4122;SDS011;2075;51.062;6.920;2023-06-01T11:52:42;27.00;;;16.50;;
4122;SDS011;2075;51.062;6.920;2023-06-01T11:55:28;24.50;;;14.20;;
4122;SDS011;2075;51.062;6.920;2023-06-01T11:58:13;26.10;;;15.30;;
4122;SDS011;2075;51.062;6.920;2023-06-01T12:00:59;23.77;;;14.87;;
4122;SDS011;2075;51.062;6.920;2023-06-01T12:03:44;25.63;;;15.57;;
4122;SDS011;2075;51.062;6.920;2023-06-01T12:06:31;29.53;;;17.30;;
4122;SDS011;2075;51.062;6.920;2023-06-01T12:09:18;30.57;;;16.53;;
4122;SDS011;2075;51.062;6.920;2023-06-01T12:12:04;35.60;;;16.93;;
4122;SDS011;2075;51.062;6.920;2023-06-01T12:14:53;31.40;;;16.60;;
4122;SDS011;2075;51.062;6.920;2023-06-01T12:17:48;24.03;;;16.90;;
4122;SDS011;2075;51.062;6.920;2023-06-01T12:20:34;23.20;;;15.33;;
4122;SDS011;2075;51.062;6.920;2023-06-01T12:23:21;27.97;;;15.70;;
4122;SDS011;2075;51.062;6.920;2023-06-01T12:26:09;22.50;;;13.60;;
4122;SDS011;2075;51.062;6.920;2023-06-01T12:28:55;21.60;;;12.83;;
4122;SDS011;2075;51.062;6.920;2023-06-01T12:31:51;21.33;;;12.33;;
4122;SDS011;2075;51.062;6.920;2023-06-01T12:34:39;18.07;;;11.40;;
4122;SDS011;2075;51.062;6.920;2023-06-01T12:37:31;21.57;;;12.10;;
4122;SDS011;2075;51.062;6.920;2023-06-01T12:40:21;18.87;;;10.27;;
4122;SDS011;2075;51.062;6.920;2023-06-01T12:43:18;18.13;;;12.10;;
4122;SDS011;2075;51.062;6.920;2023-06-01T12:46:04;18.77;;;11.30;;
4122;SDS011;2075;51.062;6.920;2023-06-01T12:48:51;11.70;;;8.90;;
4122;SDS011;2075;51.062;6.920;2023-06-01T12:51:37;15.40;;;9.93;;
4122;SDS011;2075;51.062;6.920;2023-06-01T12:54:23;27.57;;;11.70;;
4122;SDS011;2075;51.062;6.920;2023-06-01T12:57:12;17.13;;;9.83;;
4122;SDS011;2075;51.062;6.920;2023-06-01T12:59:59;19.63;;;8.93;;
4122;SDS011;2075;51.062;6.920;2023-06-01T13:02:46;22.30;;;8.27;;
4122;SDS011;2075;51.062;6.920;2023-06-01T13:05:34;13.80;;;7.90;;
4122;SDS011;2075;51.062;6.920;2023-06-01T13:08:19;14.63;;;8.60;;
4122;SDS011;2075;51.062;6.920;2023-06-01T13:11:06;13.27;;;7.90;;
4122;SDS011;2075;51.062;6.920;2023-06-01T13:13:51;11.67;;;6.87;;
4122;SDS011;2075;51.062;6.920;2023-06-01T13:16:38;12.30;;;7.30;;
4122;SDS011;2075;51.062;6.920;2023-06-01T13:19:24;15.27;;;7.57;;
4122;SDS011;2075;51.062;6.920;2023-06-01T13:22:10;22.77;;;8.73;;
4122;SDS011;2075;51.062;6.920;2023-06-01T13:24:56;16.30;;;7.70;;
4122;SDS011;2075;51.062;6.920;2023-06-01T13:27:41;14.53;;;7.13;;
4122;SDS011;2075;51.062;6.920;2023-06-01T13:30:27;14.13;;;7.03;;
4122;SDS011;2075;51.062;6.920;2023-06-01T13:33:14;15.13;;;7.50;;
4122;SDS011;2075;51.062;6.920;2023-06-01T13:36:00;10.53;;;7.77;;
4122;SDS011;2075;51.062;6.920;2023-06-01T13:38:46;10.53;;;7.00;;
4122;SDS011;2075;51.062;6.920;2023-06-01T13:41:32;13.43;;;7.10;;
4122;SDS011;2075;51.062;6.920;2023-06-01T13:44:18;24.10;;;8.50;;
4122;SDS011;2075;51.062;6.920;2023-06-01T13:47:11;15.40;;;7.93;;
4122;SDS011;2075;51.062;6.920;2023-06-01T13:49:59;18.53;;;7.70;;
4122;SDS011;2075;51.062;6.920;2023-06-01T13:52:45;17.13;;;7.80;;
4122;SDS011;2075;51.062;6.920;2023-06-01T13:55:31;15.17;;;9.20;;
4122;SDS011;2075;51.062;6.920;2023-06-01T13:58:16;18.20;;;8.10;;
4122;SDS011;2075;51.062;6.920;2023-06-01T14:01:01;11.50;;;7.30;;
4122;SDS011;2075;51.062;6.920;2023-06-01T14:03:47;15.40;;;7.80;;
4122;SDS011;2075;51.062;6.920;2023-06-01T14:06:35;13.70;;;8.00;;
4122;SDS011;2075;51.062;6.920;2023-06-01T14:09:21;17.13;;;8.07;;
4122;SDS011;2075;51.062;6.920;2023-06-01T14:12:07;13.03;;;7.97;;
4122;SDS011;2075;51.062;6.920;2023-06-01T14:14:55;12.83;;;7.57;;
4122;SDS011;2075;51.062;6.920;2023-06-01T14:17:41;14.73;;;8.27;;
4122;SDS011;2075;51.062;6.920;2023-06-01T14:20:27;15.37;;;7.23;;
4122;SDS011;2075;51.062;6.920;2023-06-01T14:23:14;13.93;;;7.10;;
4122;SDS011;2075;51.062;6.920;2023-06-01T14:26:01;12.33;;;7.17;;
4122;SDS011;2075;51.062;6.920;2023-06-01T14:28:47;11.40;;;7.00;;
4122;SDS011;2075;51.062;6.920;2023-06-01T14:31:33;13.40;;;6.83;;
4122;SDS011;2075;51.062;6.920;2023-06-01T14:34:19;16.37;;;7.33;;
4122;SDS011;2075;51.062;6.920;2023-06-01T14:37:05;21.80;;;7.40;;
4122;SDS011;2075;51.062;6.920;2023-06-01T14:39:56;10.40;;;6.30;;
4122;SDS011;2075;51.062;6.920;2023-06-01T14:42:42;12.60;;;6.80;;
4122;SDS011;2075;51.062;6.920;2023-06-01T14:45:29;13.73;;;7.30;;
4122;SDS011;2075;51.062;6.920;2023-06-01T14:48:15;13.70;;;7.87;;
4122;SDS011;2075;51.062;6.920;2023-06-01T14:51:00;9.67;;;6.80;;
4122;SDS011;2075;51.062;6.920;2023-06-01T14:53:46;11.40;;;7.00;;
4122;SDS011;2075;51.062;6.920;2023-06-01T14:56:34;16.40;;;8.10;;
4122;SDS011;2075;51.062;6.920;2023-06-01T14:59:20;12.60;;;8.10;;
4122;SDS011;2075;51.062;6.920;2023-06-01T15:02:06;10.77;;;7.13;;
4122;SDS011;2075;51.062;6.920;2023-06-01T15:04:58;16.00;;;7.30;;
4122;SDS011;2075;51.062;6.920;2023-06-01T15:07:44;12.60;;;7.40;;
4122;SDS011;2075;51.062;6.920;2023-06-01T15:10:33;10.35;;;6.80;;
4122;SDS011;2075;51.062;6.920;2023-06-01T15:13:20;9.50;;;7.00;;
4122;SDS011;2075;51.062;6.920;2023-06-01T15:16:06;16.43;;;7.10;;
4122;SDS011;2075;51.062;6.920;2023-06-01T15:18:52;9.20;;;6.80;;
4122;SDS011;2075;51.062;6.920;2023-06-01T15:21:37;11.83;;;6.40;;
4122;SDS011;2075;51.062;6.920;2023-06-01T15:24:24;9.67;;;6.13;;
4122;SDS011;2075;51.062;6.920;2023-06-01T15:27:09;9.93;;;5.90;;
4122;SDS011;2075;51.062;6.920;2023-06-01T15:29:57;11.45;;;6.55;;
4122;SDS011;2075;51.062;6.920;2023-06-01T15:32:43;10.83;;;7.07;;
4122;SDS011;2075;51.062;6.920;2023-06-01T15:35:28;11.55;;;6.90;;
4122;SDS011;2075;51.062;6.920;2023-06-01T15:38:14;8.53;;;6.40;;
4122;SDS011;2075;51.062;6.920;2023-06-01T15:41:00;12.53;;;6.30;;
4122;SDS011;2075;51.062;6.920;2023-06-01T15:43:46;15.57;;;7.03;;
4122;SDS011;2075;51.062;6.920;2023-06-01T15:46:33;12.87;;;5.90;;
4122;SDS011;2075;51.062;6.920;2023-06-01T15:49:19;12.53;;;7.30;;
4122;SDS011;2075;51.062;6.920;2023-06-01T15:52:05;10.03;;;6.60;;
4122;SDS011;2075;51.062;6.920;2023-06-01T15:54:51;11.07;;;6.17;;
4122;SDS011;2075;51.062;6.920;2023-06-01T15:57:38;8.73;;;6.17;;
4122;SDS011;2075;51.062;6.920;2023-06-01T16:00:24;8.47;;;6.17;;
4122;SDS011;2075;51.062;6.920;2023-06-01T16:03:12;13.83;;;7.53;;
4122;SDS011;2075;51.062;6.920;2023-06-01T16:05:59;14.20;;;6.80;;
4122;SDS011;2075;51.062;6.920;2023-06-01T16:08:53;9.50;;;6.70;;
4122;SDS011;2075;51.062;6.920;2023-06-01T16:11:38;10.90;;;6.50;;
4122;SDS011;2075;51.062;6.920;2023-06-01T16:14:24;10.73;;;6.43;;
4122;SDS011;2075;51.062;6.920;2023-06-01T16:17:10;17.30;;;6.57;;
4122;SDS011;2075;51.062;6.920;2023-06-01T16:19:57;10.13;;;5.77;;
4122;SDS011;2075;51.062;6.920;2023-06-01T16:22:43;9.97;;;6.53;;
4122;SDS011;2075;51.062;6.920;2023-06-01T16:25:29;16.70;;;6.40;;
4122;SDS011;2075;51.062;6.920;2023-06-01T16:28:17;9.87;;;6.30;;
4122;SDS011;2075;51.062;6.920;2023-06-01T16:31:03;12.30;;;6.70;;
4122;SDS011;2075;51.062;6.920;2023-06-01T16:33:50;8.57;;;6.53;;
4122;SDS011;2075;51.062;6.920;2023-06-01T16:36:38;10.30;;;5.60;;
4122;SDS011;2075;51.062;6.920;2023-06-01T16:39:24;8.20;;;6.10;;
4122;SDS011;2075;51.062;6.920;2023-06-01T16:42:10;10.13;;;6.30;;
4122;SDS011;2075;51.062;6.920;2023-06-01T16:44:56;9.10;;;6.30;;
4122;SDS011;2075;51.062;6.920;2023-06-01T16:47:42;18.13;;;6.23;;
4122;SDS011;2075;51.062;6.920;2023-06-01T16:50:28;22.93;;;6.43;;
4122;SDS011;2075;51.062;6.920;2023-06-01T16:53:15;7.90;;;5.50;;
4122;SDS011;2075;51.062;6.920;2023-06-01T16:56:01;7.30;;;5.67;;
4122;SDS011;2075;51.062;6.920;2023-06-01T16:58:46;14.03;;;6.30;;
4122;SDS011;2075;51.062;6.920;2023-06-01T17:01:32;12.60;;;6.50;;
4122;SDS011;2075;51.062;6.920;2023-06-01T17:04:19;12.33;;;7.03;;
4122;SDS011;2075;51.062;6.920;2023-06-01T17:07:04;15.80;;;7.10;;
4122;SDS011;2075;51.062;6.920;2023-06-01T17:09:51;7.63;;;5.60;;
4122;SDS011;2075;51.062;6.920;2023-06-01T17:12:37;10.20;;;6.73;;